Corona Range LRC Data

Date Time Air Temperature Relative Humidity Dewpoint Windchill Heat Index Wind Speed Wind Dir. Rain Solar Radiation Soil Temperature
2m 2m 3m 3m 10cm
US/Mountain F % F F F MPH deg in MJ/m^2 F
max avg avg
2020-09-16 00:05:00 57.8 58.0 43.1 57.8 57.8 6.5 7.2 6.4 286.2 270.1 0.00 0.0000000 72.3
2020-09-16 00:10:00 56.8 59.2 42.7 56.8 56.8 7.1 7.4 6.6 264.6 267.3 0.00 0.0000000 72.2
2020-09-16 00:15:00 57.5 58.4 43.0 57.5 57.5 6.3 8.3 7.2 264.9 271.4 0.00 0.0000000 72.1
2020-09-16 00:20:00 57.0 60.2 43.3 57.0 57.0 5.6 7.2 6.1 257.0 277.2 0.00 0.0000000 72.3
2020-09-16 00:25:00 57.9 57.6 43.0 57.9 57.9 6.5 9.2 7.3 279.0 269.1 0.00 0.0000000 72.3
2020-09-16 00:30:00 58.3 57.4 43.3 58.3 58.3 8.0 8.7 7.4 266.2 268.4 0.00 0.0000000 72.3
2020-09-16 00:35:00 57.9 58.0 43.3 57.9 57.9 6.3 8.5 7.2 282.0 273.1 0.00 0.0000000 72.2
2020-09-16 00:40:00 57.4 59.7 43.5 57.4 57.4 5.5 7.4 6.4 280.6 274.1 0.00 0.0000000 72.2
2020-09-16 00:45:00 57.1 59.8 43.3 57.1 57.1 6.0 7.1 6.3 265.1 277.9 0.00 0.0000000 72.1
2020-09-16 00:50:00 57.9 57.8 43.1 57.9 57.9 6.3 8.7 7.2 261.3 271.3 0.00 0.0000000 72.1
2020-09-16 00:55:00 58.1 57.4 43.2 58.1 58.1 6.5 9.0 7.1 266.6 269.8 0.00 0.0000000 72.1
2020-09-16 01:00:00 57.1 60.1 43.4 57.1 57.1 5.5 6.9 6.1 277.5 277.1 0.00 0.0000000 72.0
2020-09-16 01:05:00 55.7 62.8 43.2 55.7 55.7 4.6 5.8 5.0 276.2 279.5 0.00 0.0000000 72.0
2020-09-16 01:10:00 56.0 61.7 43.1 56.0 56.0 5.6 7.1 6.0 273.4 273.1 0.00 0.0000000 71.9
2020-09-16 01:15:00 56.0 61.8 43.1 56.0 56.0 6.2 6.7 6.0 285.3 276.0 0.00 0.0000000 71.9
2020-09-16 01:20:00 55.7 63.3 43.4 55.7 55.7 5.5 6.5 5.5 285.0 277.6 0.00 0.0000000 71.9
2020-09-16 01:25:00 55.1 64.1 43.2 55.1 55.1 6.0 6.0 5.2 270.8 281.0 0.00 0.0000000 71.8
2020-09-16 01:30:00 55.7 62.6 43.1 55.7 55.7 6.3 6.5 5.9 284.8 277.8 0.00 0.0000000 71.8
2020-09-16 01:35:00 55.9 62.6 43.4 55.9 55.9 6.2 8.1 6.3 264.0 275.2 0.00 0.0000000 71.7
2020-09-16 01:40:00 55.7 63.1 43.3 55.7 55.7 5.5 7.6 6.4 283.6 276.8 0.00 0.0000000 71.6
2020-09-16 01:45:00 55.5 63.1 43.1 55.5 55.5 7.1 7.2 6.4 298.2 282.8 0.00 0.0000000 71.5
2020-09-16 01:50:00 55.6 63.2 43.2 55.6 55.6 6.3 7.6 6.3 280.0 281.8 0.00 0.0000000 71.5
2020-09-16 01:55:00 56.0 61.3 42.9 56.0 56.0 7.1 8.0 6.7 258.6 276.6 0.00 0.0000000 71.4
2020-09-16 02:00:00 56.6 60.9 43.3 56.6 56.6 6.7 7.6 6.5 269.3 274.6 0.00 0.0000000 71.4
2020-09-16 02:05:00 55.9 62.4 43.3 55.9 55.9 7.4 7.6 6.4 292.4 279.4 0.00 0.0000000 71.3
2020-09-16 02:10:00 55.6 63.2 43.3 55.6 55.6 6.2 7.6 6.6 279.5 278.2 0.00 0.0000000 71.3
2020-09-16 02:15:00 55.0 64.6 43.3 55.0 55.0 5.5 7.2 6.3 271.0 277.3 0.00 0.0000000 71.2
2020-09-16 02:20:00 54.8 64.6 43.1 54.8 54.8 6.3 7.1 6.1 302.2 275.6 0.00 0.0000000 71.1
2020-09-16 02:25:00 55.0 63.4 42.7 55.0 55.0 6.3 6.9 5.8 275.5 280.2 0.00 0.0000000 71.0
2020-09-16 02:30:00 56.1 60.2 42.5 56.1 56.1 5.5 6.9 5.9 281.8 275.4 0.00 0.0000000 70.9
2020-09-16 02:35:00 55.9 61.9 43.1 55.9 55.9 5.8 6.5 5.4 272.0 284.1 0.00 0.0000000 70.7
2020-09-16 02:40:00 55.2 63.7 43.1 55.2 55.2 5.5 6.7 5.9 276.9 280.6 0.00 0.0000000 70.5
2020-09-16 02:45:00 55.1 63.5 42.9 55.1 55.1 6.0 7.1 6.0 282.4 283.5 0.00 0.0000000 70.4
2020-09-16 02:50:00 55.0 64.0 43.1 55.0 55.0 6.3 7.2 5.9 263.9 282.4 0.00 0.0000000 70.2
2020-09-16 02:55:00 55.0 63.4 42.8 55.0 55.0 7.8 7.8 6.2 282.6 281.1 0.00 0.0000000 70.1
2020-09-16 03:00:00 55.1 63.2 42.9 55.1 55.1 7.1 7.6 6.5 267.6 276.2 0.00 0.0000000 69.9
2020-09-16 03:05:00 55.6 61.5 42.5 55.6 55.6 6.7 7.4 6.7 272.6 273.4 0.00 0.0000000 69.8
2020-09-16 03:10:00 56.3 59.9 42.5 56.3 56.3 6.2 8.7 6.7 266.9 276.4 0.00 0.0000000 69.5
2020-09-16 03:15:00 56.5 58.9 42.3 56.5 56.5 7.2 7.8 6.6 262.4 265.7 0.00 0.0000000 69.3
2020-09-16 03:20:00 57.5 56.4 42.1 57.5 57.5 7.1 8.8 7.1 276.2 267.2 0.00 0.0000000 69.1
2020-09-16 03:25:00 57.4 57.2 42.4 57.4 57.4 5.3 8.1 6.5 295.5 273.5 0.00 0.0000000 68.8
2020-09-16 03:30:00 56.3 60.1 42.6 56.3 56.3 5.3 6.9 6.1 276.8 278.3 0.00 0.0000000 68.6
2020-09-16 03:35:00 55.9 60.2 42.3 55.9 55.9 6.3 8.5 6.3 271.6 272.7 0.00 0.0000000 68.5
2020-09-16 03:40:00 55.4 61.5 42.4 55.4 55.4 5.8 6.7 5.8 260.0 275.0 0.00 0.0000000 68.4
2020-09-16 03:45:00 55.1 62.6 42.5 55.1 55.1 4.9 6.7 5.9 271.6 275.1 0.00 0.0000000 68.3
2020-09-16 03:50:00 54.4 63.7 42.4 54.4 54.4 6.5 6.7 5.8 279.4 278.9 0.00 0.0000000 68.1
2020-09-16 03:55:00 54.6 63.3 42.4 54.6 54.6 5.1 6.5 5.5 263.6 271.7 0.00 0.0000000 68.2
2020-09-16 04:00:00 54.1 64.6 42.4 54.1 54.1 6.2 6.5 5.7 285.2 281.7 0.00 0.0000000 68.0
2020-09-16 04:05:00 54.1 64.2 42.3 54.1 54.1 5.6 7.4 6.2 253.1 284.2 0.00 0.0000000 67.9
2020-09-16 04:10:00 54.4 63.1 42.1 54.4 54.4 6.7 7.4 6.4 280.3 279.1 0.00 0.0000000 67.7
2020-09-16 04:15:00 54.5 62.7 42.0 54.5 54.5 6.9 7.6 6.6 273.4 281.1 0.00 0.0000000 67.6
2020-09-16 04:20:00 54.5 62.4 42.0 54.5 54.5 7.1 8.1 6.7 271.1 280.5 0.00 0.0000000 67.5
2020-09-16 04:25:00 54.5 62.6 41.9 54.5 54.5 6.5 7.6 6.5 289.2 280.6 0.00 0.0000000 67.4
2020-09-16 04:30:00 54.1 63.4 41.9 54.1 54.1 6.5 7.1 6.2 279.7 280.2 0.00 0.0000000 67.3
2020-09-16 04:35:00 53.7 64.1 41.9 53.7 53.7 5.5 6.9 6.1 282.1 280.3 0.00 0.0000000 67.2
2020-09-16 04:40:00 53.5 64.0 41.6 53.5 53.5 6.5 6.7 6.0 288.1 278.7 0.00 0.0000000 67.1
2020-09-16 04:45:00 53.5 64.1 41.6 53.5 53.5 6.0 7.1 6.1 279.4 283.7 0.00 0.0000000 67.0
2020-09-16 04:50:00 53.1 64.8 41.6 53.1 53.1 5.5 6.5 5.9 293.3 285.8 0.00 0.0000000 67.0
2020-09-16 04:55:00 53.4 63.8 41.4 53.4 53.4 6.3 7.2 5.9 312.6 299.6 0.00 0.0000000 66.9
2020-09-16 05:00:00 54.0 62.0 41.3 54.0 54.0 5.6 7.6 6.2 299.7 300.6 0.00 0.0000000 66.8
2020-09-16 05:05:00 54.9 59.9 41.2 54.9 54.9 5.5 8.1 6.2 289.1 298.7 0.00 0.0000000 66.8
2020-09-16 05:10:00 54.7 59.9 41.0 54.7 54.7 4.9 6.7 5.6 291.1 292.1 0.00 0.0000000 66.7
2020-09-16 05:15:00 54.2 59.9 40.6 54.2 54.2 6.0 7.2 6.2 303.5 292.2 0.00 0.0000000 66.6
2020-09-16 05:20:00 54.5 60.1 40.9 54.5 54.5 6.7 7.8 6.6 266.5 291.9 0.00 0.0000000 66.5
2020-09-16 05:25:00 53.2 63.5 41.1 53.2 53.2 5.5 7.8 6.0 274.7 287.6 0.00 0.0000000 66.4
2020-09-16 05:30:00 52.6 64.5 41.0 52.6 52.6 6.9 7.6 6.6 280.6 283.4 0.00 0.0000000 66.4
2020-09-16 05:35:00 51.5 67.9 41.2 51.5 51.5 6.3 6.9 5.9 271.3 284.8 0.00 0.0000000 66.3
2020-09-16 05:40:00 50.8 71.0 41.7 50.8 50.8 6.0 6.7 5.7 271.3 275.2 0.00 0.0000000 66.2
2020-09-16 05:45:00 50.1 73.6 41.9 50.1 50.1 4.9 6.9 5.9 265.5 281.4 0.00 0.0000000 66.1
2020-09-16 05:50:00 49.8 73.9 41.8 48.1 49.8 4.7 6.2 5.2 303.5 289.8 0.00 0.0000000 66.0
2020-09-16 05:55:00 50.3 71.9 41.6 50.3 50.3 5.6 6.7 5.3 297.8 290.5 0.00 0.0000000 66.0
2020-09-16 06:00:00 51.0 70.2 41.6 51.0 51.0 4.7 6.0 5.4 289.1 289.3 0.00 0.0000000 66.1
2020-09-16 06:05:00 51.2 70.3 41.9 51.2 51.2 4.4 5.8 4.9 294.9 297.3 0.00 0.0000000 66.1
2020-09-16 06:10:00 50.7 71.1 41.6 50.7 50.7 3.8 4.7 3.9 283.0 289.8 0.00 0.0000000 66.1
2020-09-16 06:15:00 50.7 70.6 41.5 50.7 50.7 3.0 3.8 3.3 303.3 299.1 0.00 0.0000000 66.1
2020-09-16 06:20:00 50.7 71.1 41.6 50.7 50.7 2.4 3.3 1.6 153.5 269.3 0.00 0.0000000 66.0
2020-09-16 06:25:00 49.2 74.8 41.5 49.2 49.2 2.1 3.3 2.8 169.2 165.4 0.00 0.0000000 66.0
2020-09-16 06:30:00 49.3 74.0 41.4 49.3 49.3 3.0 3.0 2.5 216.2 186.0 0.00 0.0000000 65.9
2020-09-16 06:35:00 50.3 71.2 41.3 50.3 50.3 4.0 4.2 3.7 229.6 213.3 0.00 0.0000000 65.9
2020-09-16 06:40:00 50.6 71.2 41.6 50.6 50.6 4.2 5.1 4.4 244.5 230.6 0.00 0.0000000 65.8
2020-09-16 06:45:00 49.7 73.0 41.4 48.5 49.7 4.0 4.9 4.4 257.2 243.2 0.00 0.0000000 65.8
2020-09-16 06:50:00 49.8 72.6 41.4 48.5 49.8 4.2 4.9 4.0 263.3 253.7 0.00 0.0000000 65.7
2020-09-16 06:55:00 50.3 71.6 41.5 50.3 50.3 3.3 4.9 3.7 227.8 252.2 0.00 0.0003535 65.6
2020-09-16 07:00:00 50.1 72.8 41.7 50.1 50.1 3.1 3.8 3.3 246.4 232.0 0.00 0.0017975 65.5
2020-09-16 07:05:00 50.5 72.6 42.0 50.5 50.5 3.7 4.2 3.2 290.9 273.8 0.00 0.0036101 65.4
2020-09-16 07:10:00 52.1 68.1 41.9 52.1 52.1 4.0 5.6 4.5 312.1 295.9 0.00 0.0060925 65.4
2020-09-16 07:15:00 52.6 67.4 42.1 52.6 52.6 4.9 5.5 4.5 291.3 290.5 0.00 0.0081123 65.3
2020-09-16 07:20:00 53.0 66.0 42.0 53.0 53.0 4.9 6.7 5.1 281.6 296.7 0.00 0.0102917 65.2
2020-09-16 07:25:00 53.9 64.2 42.1 53.9 53.9 4.4 6.9 5.1 297.1 298.0 0.00 0.0120244 65.1
2020-09-16 07:30:00 54.6 63.4 42.4 54.6 54.6 3.8 6.0 4.7 328.4 297.1 0.00 0.0140117 65.1
2020-09-16 07:35:00 55.0 61.8 42.1 55.0 55.0 5.6 6.5 5.1 279.2 284.6 0.00 0.0165396 65.0
2020-09-16 07:40:00 55.7 61.0 42.5 55.7 55.7 5.3 8.3 6.3 271.8 282.4 0.00 0.0194009 64.9
2020-09-16 07:45:00 55.7 60.0 42.0 55.7 55.7 7.8 9.0 7.3 284.3 280.0 0.00 0.0217896 64.9
2020-09-16 07:50:00 56.1 60.0 42.4 56.1 56.1 7.8 8.8 7.6 254.4 272.1 0.00 0.0244000 64.8
2020-09-16 07:55:00 56.6 59.5 42.7 56.6 56.6 8.7 10.3 8.1 293.1 275.2 0.00 0.0272658 64.8
2020-09-16 08:00:00 57.3 58.1 42.7 57.3 57.3 8.5 9.9 7.9 271.6 271.9 0.00 0.0305066 64.7
2020-09-16 08:05:00 58.3 56.4 42.8 58.3 58.3 8.1 9.9 7.8 284.3 276.6 0.00 0.0344719 64.6
2020-09-16 08:10:00 58.9 55.7 43.1 58.9 58.9 8.3 8.8 7.4 262.9 272.9 0.00 0.0376492 64.6
2020-09-16 08:15:00 60.2 53.6 43.3 60.2 60.2 7.1 8.1 6.5 261.3 265.4 0.00 0.0408982 64.5
2020-09-16 08:20:00 61.3 51.3 43.1 61.3 61.3 8.1 8.1 6.4 266.3 264.7 0.00 0.0441598 64.5
2020-09-16 08:25:00 62.3 49.4 43.1 62.3 62.3 6.2 8.3 7.1 251.1 264.4 0.00 0.0477398 64.5
2020-09-16 08:30:00 63.6 47.0 43.0 63.6 63.6 6.2 8.1 6.2 258.1 259.7 0.00 0.0512253 64.5
2020-09-16 08:35:00 64.7 42.4 41.4 64.7 64.7 6.5 9.7 7.5 255.7 261.7 0.00 0.0544784 64.4
2020-09-16 08:40:00 65.2 40.1 40.4 65.2 65.2 9.0 11.2 7.9 276.6 271.0 0.00 0.0576661 64.4
2020-09-16 08:45:00 65.8 39.6 40.6 65.8 65.8 9.7 12.2 8.5 289.2 269.4 0.00 0.0613334 64.4
2020-09-16 08:50:00 66.7 36.2 39.0 66.7 66.7 10.3 11.7 9.3 274.7 270.2 0.00 0.0645827 64.3
2020-09-16 08:55:00 67.4 37.5 40.6 67.4 67.4 7.2 11.2 8.1 287.4 281.8 0.00 0.0681612 64.3
2020-09-16 09:00:00 67.5 34.5 38.6 67.5 67.5 11.0 14.0 10.2 303.7 279.0 0.00 0.0708566 64.3
2020-09-16 09:05:00 67.8 34.6 38.8 67.8 67.8 9.9 13.3 10.2 281.6 279.3 0.00 0.0737030 64.4
2020-09-16 09:10:00 67.7 34.6 38.8 67.7 67.7 9.9 13.0 10.4 286.0 289.4 0.00 0.0764202 64.4
2020-09-16 09:15:00 68.3 32.7 37.8 68.3 68.3 9.2 12.2 10.6 293.5 284.9 0.00 0.0804089 64.4
2020-09-16 09:20:00 68.7 32.7 38.1 68.7 68.7 8.5 11.3 8.8 291.5 290.0 0.00 0.0840143 64.4
2020-09-16 09:25:00 68.9 33.0 38.6 68.9 68.9 7.2 12.6 9.2 315.6 292.6 0.00 0.0870434 64.5
2020-09-16 09:30:00 69.6 29.9 36.7 69.6 69.6 14.2 14.2 9.4 283.5 300.9 0.00 0.0908636 64.5
2020-09-16 09:35:00 69.6 30.1 36.9 69.6 69.6 12.1 13.1 10.8 318.8 309.0 0.00 0.0938707 64.6
2020-09-16 09:40:00 70.1 31.0 38.0 70.1 70.1 11.7 13.3 10.6 303.9 314.0 0.00 0.0969563 64.6
2020-09-16 09:45:00 70.0 32.0 38.8 70.0 70.0 10.1 13.7 10.9 313.0 307.8 0.00 0.1001005 64.7
2020-09-16 09:50:00 70.9 27.0 35.2 70.9 70.9 15.8 15.8 11.1 339.2 326.6 0.00 0.1038172 64.8
2020-09-16 09:55:00 71.1 27.4 35.8 71.1 71.1 10.3 16.0 11.5 341.3 329.1 0.00 0.1064285 64.9
2020-09-16 10:00:00 71.2 24.7 33.2 71.2 71.2 13.5 15.6 12.1 348.4 337.2 0.00 0.1090325 65.0
2020-09-16 10:05:00 71.0 25.6 33.9 71.0 71.0 13.3 15.1 12.3 341.1 348.1 0.00 0.1114044 65.1
2020-09-16 10:10:00 71.2 26.0 34.6 71.2 71.2 14.4 14.4 10.6 336.8 346.0 0.00 0.1142128 65.2
2020-09-16 10:15:00 70.5 28.6 36.3 70.5 70.5 9.4 15.5 10.9 332.5 329.8 0.00 0.1167041 65.4
2020-09-16 10:20:00 71.2 26.3 34.8 71.2 71.2 12.1 12.8 10.1 335.5 338.3 0.00 0.1195356 65.5
2020-09-16 10:25:00 71.2 27.5 35.9 71.2 71.2 11.0 12.1 9.0 332.1 321.6 0.00 0.1215560 65.7
2020-09-16 10:30:00 71.2 28.4 36.7 71.2 71.2 10.1 12.1 8.9 328.4 330.1 0.00 0.1237316 65.8
2020-09-16 10:35:00 71.7 27.8 36.7 71.7 71.7 5.6 9.9 6.2 0.4 332.6 0.00 0.1263275 66.0
2020-09-16 10:40:00 73.3 25.3 35.7 73.3 73.3 8.7 11.0 7.9 0.5 357.9 0.00 0.1286401 66.2
2020-09-16 10:45:00 73.4 23.2 33.5 73.4 73.4 7.1 13.1 10.5 3.9 1.2 0.00 0.1303776 66.4
2020-09-16 10:50:00 73.7 22.3 32.8 73.7 73.7 11.2 14.2 10.5 28.9 17.5 0.00 0.1331203 66.6
2020-09-16 10:55:00 74.4 23.3 34.4 74.4 74.4 7.4 14.6 10.8 0.6 13.7 0.00 0.1351286 66.8
2020-09-16 11:00:00 73.8 21.3 31.8 73.8 73.8 10.1 15.8 12.0 27.6 23.3 0.00 0.1366281 67.0
2020-09-16 11:05:00 74.6 20.2 31.1 74.6 74.6 17.4 17.4 12.3 7.6 358.8 0.00 0.1388221 67.3
2020-09-16 11:10:00 74.6 19.5 30.2 74.6 74.6 12.8 16.0 12.3 35.4 14.6 0.00 0.1406048 67.6
2020-09-16 11:15:00 74.6 17.1 27.1 74.6 74.6 10.8 17.2 14.0 5.5 18.8 0.00 0.1424720 67.8
2020-09-16 11:20:00 74.8 13.9 22.2 74.8 74.8 17.1 18.0 13.4 22.4 28.0 0.00 0.1447704 68.1
2020-09-16 11:25:00 74.7 17.8 28.1 74.7 74.7 16.5 17.6 14.4 35.3 30.3 0.00 0.1458212 68.4
2020-09-16 11:30:00 74.6 16.9 26.7 74.6 74.6 16.4 18.1 14.5 51.2 33.8 0.00 0.1472284 68.7
2020-09-16 11:35:00 74.7 19.1 29.8 74.7 74.7 10.5 18.5 14.0 26.4 34.4 0.00 0.1487046 69.0
2020-09-16 11:40:00 74.4 18.3 28.5 74.4 74.4 12.2 17.6 14.1 28.3 26.6 0.00 0.1497480 69.4
2020-09-16 11:45:00 74.9 16.3 26.1 74.9 74.9 14.2 19.4 14.3 46.5 22.9 0.00 0.1510177 69.8
2020-09-16 11:50:00 75.0 18.0 28.6 75.0 75.0 13.0 15.1 12.5 35.8 37.8 0.00 0.1520675 70.3
2020-09-16 11:55:00 75.2 15.3 24.9 75.2 75.2 12.1 18.3 14.1 44.8 41.1 0.00 0.1531528 71.2
2020-09-16 12:00:00 75.2 16.9 27.3 75.2 75.2 12.4 23.3 14.7 40.0 33.5 0.00 0.1540607 71.7
2020-09-16 12:05:00 76.0 16.0 26.5 76.0 76.0 13.1 19.6 15.1 2.0 23.0 0.00 0.1549045 72.2
2020-09-16 12:10:00 75.9 14.6 24.2 75.9 75.9 17.4 19.2 13.9 44.8 35.4 0.00 0.1559050 72.6
2020-09-16 12:15:00 75.9 14.3 23.8 75.9 75.9 17.6 17.6 13.7 19.6 45.3 0.00 0.1562453 73.0
2020-09-16 12:20:00 75.4 15.4 25.1 75.4 75.4 13.1 21.4 14.7 43.1 25.4 0.00 0.1563036 73.4
2020-09-16 12:25:00 75.8 14.9 24.7 75.8 75.8 14.2 18.1 14.5 10.3 16.2 0.00 0.1574617 73.8
2020-09-16 12:30:00 75.8 16.2 26.7 75.8 75.8 13.0 18.1 14.6 54.8 33.9 0.00 0.1577859 74.2
2020-09-16 12:35:00 76.0 14.8 24.7 76.0 76.0 18.7 21.2 16.2 55.8 41.8 0.00 0.1576472 74.4
2020-09-16 12:40:00 76.3 15.2 25.6 76.3 76.3 13.7 19.8 16.1 33.2 29.7 0.00 0.1578714 74.6
2020-09-16 12:45:00 76.6 15.3 26.0 76.6 76.6 16.9 16.9 12.1 7.2 27.0 0.00 0.1584579 74.8
2020-09-16 12:50:00 76.1 15.4 25.8 76.1 76.1 16.0 20.3 15.3 48.1 40.3 0.00 0.1588568 75.0
2020-09-16 12:55:00 76.1 15.4 25.7 76.1 76.1 17.6 24.2 16.4 12.4 37.4 0.00 0.1583502 75.2
2020-09-16 13:00:00 76.5 15.2 25.7 76.5 76.5 12.8 21.2 16.1 22.3 23.9 0.00 0.1581694 75.4
2020-09-16 13:05:00 76.7 14.7 25.1 76.7 76.7 14.0 19.9 14.9 35.5 26.3 0.00 0.1577606 75.5
2020-09-16 13:10:00 77.5 14.0 24.6 77.5 77.5 18.3 19.4 15.4 32.4 37.0 0.00 0.1574993 75.7
2020-09-16 13:15:00 76.9 13.4 23.0 76.9 76.9 17.1 21.5 15.7 23.8 16.5 0.00 0.1564804 75.8
2020-09-16 13:20:00 76.6 13.7 23.2 76.6 76.6 15.8 21.0 17.0 18.1 9.9 0.00 0.1565817 75.9
2020-09-16 13:25:00 77.2 12.8 22.1 77.2 77.2 24.6 27.4 18.6 14.1 10.9 0.00 0.1563660 76.0
2020-09-16 13:30:00 76.8 13.1 22.4 76.8 76.8 22.4 24.9 18.3 334.8 17.3 0.00 0.1564047 76.2
2020-09-16 13:35:00 77.2 13.4 23.2 77.2 77.2 13.5 25.1 18.3 17.2 17.6 0.00 0.1559208 76.3
2020-09-16 13:40:00 77.6 12.7 22.3 77.6 77.6 22.8 22.8 18.1 338.2 1.4 0.00 0.1547826 76.4
2020-09-16 13:45:00 77.0 13.4 23.1 77.0 77.0 18.7 26.9 18.0 33.8 29.8 0.00 0.1532747 76.5
2020-09-16 13:50:00 78.1 14.0 24.9 78.1 78.1 18.7 21.0 15.8 13.9 7.9 0.00 0.1518620 76.7
2020-09-16 13:55:00 76.9 13.9 23.8 76.9 76.9 19.4 23.9 17.9 28.6 13.3 0.00 0.1505559 76.8
2020-09-16 14:00:00 77.2 13.7 23.8 77.2 77.2 19.8 24.0 16.5 27.6 21.4 0.00 0.1494775 76.9
2020-09-16 14:05:00 76.9 13.3 22.8 76.9 76.9 22.1 28.7 21.6 18.4 25.6 0.00 0.1498132 76.9
2020-09-16 14:10:00 76.9 13.7 23.6 76.9 76.9 18.7 22.6 19.9 1.3 16.7 0.00 0.1480349 77.1
2020-09-16 14:15:00 76.5 14.0 23.7 76.5 76.5 15.8 25.6 18.8 45.4 35.6 0.00 0.1464342 77.1
2020-09-16 14:20:00 77.1 14.6 25.2 77.1 77.1 19.6 23.3 18.6 29.4 36.8 0.00 0.1463045 77.2
2020-09-16 14:25:00 77.2 13.9 24.1 77.2 77.2 21.9 23.0 19.2 1.1 32.9 0.00 0.1444304 77.3
2020-09-16 14:30:00 76.6 14.3 24.4 76.6 76.6 15.3 26.4 20.5 9.6 21.1 0.00 0.1433423 77.4
2020-09-16 14:35:00 76.9 14.0 24.0 76.9 76.9 20.3 27.4 20.0 27.4 31.0 0.00 0.1408907 77.5
2020-09-16 14:40:00 76.9 13.1 22.4 76.9 76.9 19.4 21.7 18.5 48.0 36.7 0.00 0.1386837 77.5
2020-09-16 14:45:00 77.2 14.8 25.7 77.2 77.2 12.4 26.0 18.3 53.2 21.5 0.00 0.1373004 77.6
2020-09-16 14:50:00 77.1 13.7 23.6 77.1 77.1 19.4 25.8 17.3 259.5 18.0 0.00 0.1343228 77.6
2020-09-16 14:55:00 76.9 14.3 24.6 76.9 76.9 19.9 27.2 20.0 344.1 15.7 0.00 0.1319147 77.7
2020-09-16 15:00:00 77.1 13.3 23.0 77.1 77.1 22.1 24.4 19.3 46.6 39.5 0.00 0.1305073 77.8
2020-09-16 15:05:00 77.4 13.3 23.1 77.4 77.4 20.5 23.2 18.7 42.9 31.8 0.00 0.1282602 77.8
2020-09-16 15:10:00 76.8 13.8 23.6 76.8 76.8 22.1 27.1 21.0 7.5 23.1 0.00 0.1255993 77.9
2020-09-16 15:15:00 77.1 14.8 25.5 77.1 77.1 17.2 22.4 17.7 5.1 15.0 0.00 0.1239197 78.0
2020-09-16 15:20:00 76.9 13.6 23.3 76.9 76.9 17.8 23.3 18.5 21.8 18.4 0.00 0.1218412 78.0
2020-09-16 15:25:00 76.7 15.2 25.9 76.7 76.7 19.9 24.8 19.2 36.3 25.2 0.00 0.1192478 78.1
2020-09-16 15:30:00 77.1 14.4 24.9 77.1 77.1 18.9 21.5 17.4 20.6 24.1 0.00 0.1170347 78.1
2020-09-16 15:35:00 76.7 14.1 24.1 76.7 76.7 18.7 25.3 18.7 22.0 36.4 0.00 0.1143170 78.2
2020-09-16 15:40:00 76.6 15.5 26.2 76.6 76.6 17.6 25.1 18.6 45.5 43.3 0.00 0.1115105 78.3
2020-09-16 15:45:00 77.1 13.7 23.8 77.1 77.1 17.1 23.3 15.9 42.1 42.7 0.00 0.1095148 78.3
2020-09-16 15:50:00 77.1 16.0 27.4 77.1 77.1 19.4 19.6 15.4 8.7 24.9 0.00 0.1066827 78.3
2020-09-16 15:55:00 76.6 15.9 26.9 76.6 76.6 14.7 22.6 17.7 45.0 29.0 0.00 0.1021837 78.4
2020-09-16 16:00:00 76.9 15.0 25.7 76.9 76.9 20.5 20.5 14.5 35.4 25.6 0.00 0.0989152 78.4
2020-09-16 16:05:00 76.8 14.7 25.1 76.8 76.8 16.2 20.6 16.9 17.8 18.1 0.00 0.0961992 78.5
2020-09-16 16:10:00 76.4 16.2 27.1 76.4 76.4 13.9 22.3 16.8 15.4 18.8 0.00 0.0933866 78.5
2020-09-16 16:15:00 76.5 15.7 26.5 76.5 76.5 19.6 19.6 16.6 36.8 42.3 0.00 0.0906762 78.5
2020-09-16 16:20:00 76.5 16.1 27.1 76.5 76.5 17.6 20.6 15.1 27.9 43.9 0.00 0.0877306 78.5
2020-09-16 16:25:00 76.2 15.1 25.3 76.2 76.2 18.0 22.6 17.4 45.1 40.6 0.00 0.0846738 78.6
2020-09-16 16:30:00 76.6 14.2 24.2 76.6 76.6 15.1 18.5 13.6 44.2 42.3 0.00 0.0816415 78.6
2020-09-16 16:35:00 76.4 15.3 25.9 76.4 76.4 10.5 18.5 14.3 32.8 47.6 0.00 0.0777761 78.7
2020-09-16 16:40:00 76.2 15.0 25.1 76.2 76.2 17.2 21.4 14.1 36.9 28.6 0.00 0.0742253 78.7
2020-09-16 16:45:00 76.2 16.6 27.6 76.2 76.2 13.3 24.2 14.4 25.7 28.5 0.00 0.0716641 78.7
2020-09-16 16:50:00 75.7 16.3 26.7 75.7 75.7 12.6 20.6 16.6 35.7 28.9 0.00 0.0682070 78.7
2020-09-16 16:55:00 75.7 15.4 25.4 75.7 75.7 19.8 21.5 16.1 34.8 37.7 0.00 0.0654620 78.7
2020-09-16 17:00:00 75.7 15.9 26.2 75.7 75.7 16.2 21.7 17.7 39.8 35.6 0.00 0.0619157 78.7
2020-09-16 17:05:00 75.8 16.1 26.5 75.8 75.8 13.7 17.2 13.1 48.9 35.9 0.00 0.0583778 78.7
2020-09-16 17:10:00 75.3 15.5 25.2 75.3 75.3 14.6 20.5 17.4 24.5 37.5 0.00 0.0558700 78.7
2020-09-16 17:15:00 75.3 16.2 26.2 75.3 75.3 13.1 15.3 12.5 49.0 46.3 0.00 0.0527884 78.7
2020-09-16 17:20:00 75.2 17.1 27.6 75.2 75.2 12.4 17.8 12.8 35.8 52.4 0.00 0.0488999 78.7
2020-09-16 17:25:00 75.0 16.1 25.9 75.0 75.0 18.5 20.1 15.2 38.3 48.7 0.00 0.0457116 78.7
2020-09-16 17:30:00 74.8 16.9 26.9 74.8 74.8 11.5 16.2 12.7 54.4 52.7 0.00 0.0428049 78.7
2020-09-16 17:35:00 74.9 17.4 27.6 74.9 74.9 11.0 14.7 10.7 39.4 50.2 0.00 0.0399162 78.7
2020-09-16 17:40:00 74.8 16.5 26.3 74.8 74.8 12.8 13.9 10.3 64.1 50.4 0.00 0.0377229 78.6
2020-09-16 17:45:00 74.6 17.1 27.0 74.6 74.6 15.5 18.0 13.7 38.5 52.1 0.00 0.0352462 78.6
2020-09-16 17:50:00 74.2 17.8 27.8 74.2 74.2 12.8 14.7 12.0 42.1 35.7 0.00 0.0318909 78.6
2020-09-16 17:55:00 74.1 17.9 27.8 74.1 74.1 13.3 16.5 11.4 47.0 46.3 0.00 0.0290902 78.5
2020-09-16 18:00:00 73.7 18.5 28.2 73.7 73.7 11.5 14.6 11.7 45.2 53.5 0.00 0.0253759 78.5
2020-09-16 18:05:00 73.5 18.9 28.7 73.5 73.5 11.2 16.2 11.9 52.3 38.4 0.00 0.0222549 78.5
2020-09-16 18:10:00 73.3 17.7 26.8 73.3 73.3 14.7 19.0 14.4 45.0 43.2 0.00 0.0197544 78.4
2020-09-16 18:15:00 73.0 18.8 28.1 73.0 73.0 12.2 14.4 11.8 50.6 53.6 0.00 0.0171093 78.4
2020-09-16 18:20:00 72.7 18.8 27.8 72.7 72.7 12.2 15.6 11.3 42.3 49.0 0.00 0.0143411 78.3
2020-09-16 18:25:00 72.5 18.4 27.1 72.5 72.5 11.7 15.3 12.2 41.7 40.4 0.00 0.0118212 78.2
2020-09-16 18:30:00 72.2 19.2 27.9 72.2 72.2 11.0 17.1 12.5 47.0 38.5 0.00 0.0097727 78.2
2020-09-16 18:35:00 71.8 18.6 26.8 71.8 71.8 13.1 15.6 11.7 40.8 43.9 0.00 0.0081907 78.1
2020-09-16 18:40:00 71.3 17.6 25.1 71.3 71.3 11.5 14.4 11.5 33.4 44.5 0.00 0.0058699 78.0
2020-09-16 18:45:00 70.6 18.2 25.4 70.6 70.6 10.8 12.6 10.5 39.9 41.1 0.00 0.0036487 78.0
2020-09-16 18:50:00 70.3 17.8 24.5 70.3 70.3 13.1 14.0 11.0 23.4 42.3 0.00 0.0018773 77.9
2020-09-16 18:55:00 70.2 18.1 24.9 70.2 70.2 10.5 14.7 11.7 49.3 40.0 0.00 0.0003514 77.8
2020-09-16 19:00:00 69.7 18.8 25.4 69.7 69.7 8.0 14.2 11.1 53.1 42.2 0.00 0.0000000 77.7
2020-09-16 19:05:00 68.8 19.8 25.8 68.8 68.8 8.1 11.5 9.6 37.7 41.5 0.00 0.0000000 77.6
2020-09-16 19:10:00 67.9 20.5 25.9 67.9 67.9 7.2 11.5 8.7 44.2 41.0 0.00 0.0000000 77.6
2020-09-16 19:15:00 67.4 21.3 26.4 67.4 67.4 7.4 10.5 8.4 38.2 41.5 0.00 0.0000000 77.5
2020-09-16 19:20:00 66.8 21.0 25.6 66.8 66.8 8.5 9.9 8.0 39.6 39.6 0.00 0.0000000 77.4
2020-09-16 19:25:00 66.3 22.0 26.3 66.3 66.3 6.7 9.0 7.5 34.7 41.3 0.00 0.0000000 77.3
2020-09-16 19:30:00 65.5 22.9 26.6 65.5 65.5 6.9 8.0 6.9 44.0 41.2 0.00 0.0000000 77.2
2020-09-16 19:35:00 64.6 24.3 27.3 64.6 64.6 5.6 7.8 6.2 45.2 39.9 0.00 0.0000000 77.1
2020-09-16 19:40:00 63.7 25.3 27.5 63.7 63.7 5.6 6.7 5.6 40.4 38.7 0.00 0.0000000 77.1
2020-09-16 19:45:00 63.0 26.7 28.1 63.0 63.0 4.7 6.0 5.1 42.1 39.3 0.00 0.0000000 77.0
2020-09-16 19:50:00 62.1 27.4 28.0 62.1 62.1 4.6 5.3 4.7 34.0 36.9 0.00 0.0000000 76.9
2020-09-16 19:55:00 61.5 28.0 28.0 61.5 61.5 4.6 5.1 4.5 28.9 35.4 0.00 0.0000000 76.7
2020-09-16 20:00:00 61.3 28.4 28.2 61.3 61.3 4.6 4.9 4.5 23.6 28.4 0.00 0.0000000 76.7
2020-09-16 20:05:00 60.9 28.9 28.3 60.9 60.9 4.2 4.7 4.3 28.8 28.2 0.00 0.0000000 76.6
2020-09-16 20:10:00 60.8 29.1 28.4 60.8 60.8 4.6 4.6 4.4 26.6 25.2 0.00 0.0000000 76.5
2020-09-16 20:15:00 60.6 28.9 28.1 60.6 60.6 4.4 4.9 4.5 29.3 25.3 0.00 0.0000000 76.4
2020-09-16 20:20:00 60.8 29.0 28.3 60.8 60.8 3.8 4.6 4.2 21.5 22.5 0.00 0.0000000 76.3
2020-09-16 20:25:00 60.3 30.1 28.8 60.3 60.3 4.4 4.7 4.4 14.9 15.7 0.00 0.0000000 76.2
2020-09-16 20:30:00 59.9 30.2 28.5 59.9 59.9 4.0 4.9 4.5 17.5 13.5 0.00 0.0000000 76.0
2020-09-16 20:35:00 60.0 30.2 28.6 60.0 60.0 4.2 4.6 4.1 21.3 18.6 0.00 0.0000000 75.9
2020-09-16 20:40:00 59.9 30.8 29.0 59.9 59.9 4.6 4.6 4.2 18.5 21.8 0.00 0.0000000 75.8
2020-09-16 20:45:00 59.3 32.2 29.6 59.3 59.3 4.2 4.6 4.3 17.4 14.9 0.00 0.0000000 75.6
2020-09-16 20:50:00 59.0 32.4 29.5 59.0 59.0 4.2 4.6 4.3 18.8 18.8 0.00 0.0000000 75.5
2020-09-16 20:55:00 58.9 33.4 30.1 58.9 58.9 3.8 4.2 3.9 8.2 12.7 0.00 0.0000000 75.3
2020-09-16 21:00:00 58.7 33.3 29.9 58.7 58.7 4.4 4.6 4.2 1.1 6.8 0.00 0.0000000 75.2
2020-09-16 21:05:00 58.4 34.3 30.3 58.4 58.4 4.0 4.7 4.5 4.2 1.2 0.00 0.0000000 75.1
2020-09-16 21:10:00 58.9 34.0 30.5 58.9 58.9 4.4 6.0 4.9 23.9 17.1 0.00 0.0000000 74.9
2020-09-16 21:15:00 58.5 35.0 30.9 58.5 58.5 5.1 6.0 5.2 34.8 28.9 0.00 0.0000000 74.8
2020-09-16 21:20:00 58.5 35.8 31.5 58.5 58.5 5.3 7.2 5.7 44.9 35.1 0.00 0.0000000 74.7
2020-09-16 21:25:00 57.7 38.3 32.5 57.7 57.7 4.2 5.6 5.0 30.5 38.0 0.00 0.0000000 74.6
2020-09-16 21:30:00 57.0 39.9 32.8 57.0 57.0 4.2 4.9 4.4 38.9 37.6 0.00 0.0000000 74.4
2020-09-16 21:35:00 56.5 40.7 32.9 56.5 56.5 4.9 5.1 4.5 30.6 36.0 0.00 0.0000000 74.3
2020-09-16 21:40:00 56.5 41.6 33.4 56.5 56.5 4.7 5.8 4.8 18.6 21.1 0.00 0.0000000 74.2
2020-09-16 21:45:00 56.0 42.3 33.4 56.0 56.0 5.1 5.6 5.1 17.4 18.2 0.00 0.0000000 74.1
2020-09-16 21:50:00 55.9 41.7 33.0 55.9 55.9 4.4 5.3 4.7 30.0 21.7 0.00 0.0000000 74.0
2020-09-16 21:55:00 56.0 42.7 33.7 56.0 56.0 4.6 5.5 4.9 27.3 31.7 0.00 0.0000000 73.9
2020-09-16 22:00:00 56.4 41.9 33.5 56.4 56.4 6.0 7.2 6.0 50.9 36.5 0.00 0.0000000 73.8
2020-09-16 22:05:00 57.3 40.3 33.4 57.3 57.3 6.0 8.0 6.5 30.9 43.0 0.00 0.0000000 73.7
2020-09-16 22:10:00 57.5 40.7 33.8 57.5 57.5 5.8 7.1 6.0 45.9 46.8 0.00 0.0000000 73.6
2020-09-16 22:15:00 57.4 41.0 33.9 57.4 57.4 5.5 7.1 5.9 35.9 42.7 0.00 0.0000000 73.5
2020-09-16 22:20:00 57.3 41.4 34.1 57.3 57.3 5.8 7.6 6.2 44.6 41.0 0.00 0.0000000 73.4
2020-09-16 22:25:00 57.8 40.4 33.8 57.8 57.8 6.9 8.0 6.6 42.5 44.1 0.00 0.0000000 73.4
2020-09-16 22:30:00 57.9 40.4 33.9 57.9 57.9 5.8 7.8 6.6 50.5 47.3 0.00 0.0000000 73.3
2020-09-16 22:35:00 57.7 40.8 34.0 57.7 57.7 6.3 7.4 6.3 37.7 46.3 0.00 0.0000000 73.2
2020-09-16 22:40:00 57.7 40.2 33.7 57.7 57.7 7.2 7.8 6.8 39.1 44.5 0.00 0.0000000 73.1
2020-09-16 22:45:00 57.5 40.9 33.9 57.5 57.5 6.7 7.8 6.6 40.7 45.2 0.00 0.0000000 73.1
2020-09-16 22:50:00 57.3 41.0 33.8 57.3 57.3 6.9 7.6 6.5 28.7 42.3 0.00 0.0000000 73.0
2020-09-16 22:55:00 57.3 40.8 33.7 57.3 57.3 6.3 7.8 6.8 38.2 43.7 0.00 0.0000000 72.9
2020-09-16 23:00:00 57.3 40.3 33.3 57.3 57.3 8.0 8.5 7.3 42.4 40.9 0.00 0.0000000 72.8
2020-09-16 23:05:00 57.4 40.2 33.4 57.4 57.4 6.7 8.8 7.6 32.2 37.5 0.00 0.0000000 72.7
2020-09-16 23:10:00 57.5 40.1 33.4 57.5 57.5 8.0 10.3 8.2 52.6 37.9 0.00 0.0000000 72.6
2020-09-16 23:15:00 57.5 39.8 33.2 57.5 57.5 9.2 9.7 7.9 38.0 41.5 0.00 0.0000000 72.6
2020-09-16 23:20:00 57.5 40.0 33.3 57.5 57.5 7.2 9.9 7.9 48.3 44.3 0.00 0.0000000 72.5
2020-09-16 23:25:00 56.5 42.3 33.9 56.5 56.5 5.3 8.3 6.5 32.3 37.0 0.00 0.0000000 72.4
2020-09-16 23:30:00 55.4 43.5 33.6 55.4 55.4 5.1 7.2 5.5 45.5 32.3 0.00 0.0000000 72.4
2020-09-16 23:35:00 55.0 44.5 33.8 55.0 55.0 6.7 6.7 5.9 38.6 31.7 0.00 0.0000000 72.3
2020-09-16 23:40:00 54.6 45.7 34.0 54.6 54.6 5.5 6.5 5.8 24.1 29.9 0.00 0.0000000 72.2
2020-09-16 23:45:00 54.1 47.2 34.4 54.1 54.1 4.6 5.8 5.2 34.2 35.6 0.00 0.0000000 72.3
2020-09-16 23:50:00 53.5 48.1 34.4 53.5 53.5 5.1 5.5 5.0 33.1 36.7 0.00 0.0000000 72.4
2020-09-16 23:55:00 53.2 49.0 34.5 53.2 53.2 5.1 5.5 5.1 31.5 33.4 0.00 0.0000000 72.4
2020-09-17 00:00:00 52.7 49.8 34.4 52.7 52.7 5.1 5.5 5.0 34.4 30.8 0.00 0.0000000 72.4

Data is courtesy of the NM Climate Center. DO NOT USE IN LEGAL PROCEEDINGS.